Time;durP1;ratioP1;P1;durP2;ratioP2;P2;SDS_P1;SDS_P2;PMS_P1;PMS_P2;Temp;Humidity;BMP_temperature;BMP_pressure;BME280_temperature;BME280_humidity;BME280_pressure;Samples;Min_cycle;Max_cycle;Signal;HPM_P1;HPM_P2
2022/02/01 00:02:06;;;;;;;11.25;3.72;;;0.50;89.50;;;;;;5046243;28;20036;-70
2022/02/01 00:07:17;;;;;;;11.65;4.30;;;0.50;89.70;;;;;;5043795;28;20045;-71
2022/02/01 00:10:07;;;;;;;9.95;4.25;;;0.50;89.70;;;;;;5047782;28;20051;-71
2022/02/01 00:36:42;;;;;;;13.60;4.60;;;0.50;89.30;;;;;;5050663;28;20029;-69
2022/02/01 00:39:11;;;;;;;7.00;3.67;;;0.50;89.40;;;;;;5052034;28;20487;-69
2022/02/01 00:41:42;;;;;;;10.27;3.13;;;0.50;89.30;;;;;;5049605;28;20329;-70
2022/02/01 00:44:09;;;;;;;11.02;3.47;;;0.50;89.10;;;;;;5046357;28;20030;-70
2022/02/01 00:46:34;;;;;;;11.68;3.80;;;0.50;89.20;;;;;;5050044;28;20104;-70
2022/02/01 00:49:01;;;;;;;10.63;3.80;;;0.50;89.40;;;;;;5043715;28;20108;-70
2022/02/01 00:51:26;;;;;;;6.68;2.95;;;0.50;89.40;;;;;;5047266;28;20378;-71
2022/02/01 00:53:52;;;;;;;7.32;3.20;;;0.50;89.80;;;;;;5045598;28;20045;-70
2022/02/01 00:56:18;;;;;;;8.55;3.53;;;0.50;89.90;;;;;;5049649;28;20029;-71
2022/02/01 00:58:45;;;;;;;11.10;3.55;;;0.50;90.20;;;;;;5066050;28;20435;-70
2022/02/01 01:01:14;;;;;;;9.15;3.25;;;0.50;90.00;;;;;;5061641;28;20107;-69
2022/02/01 01:03:40;;;;;;;8.02;3.20;;;0.50;90.00;;;;;;5049588;28;20330;-71
2022/02/01 01:06:06;;;;;;;10.10;5.05;;;0.40;90.00;;;;;;5049043;28;20080;-70
2022/02/01 01:08:32;;;;;;;9.13;4.20;;;0.40;89.60;;;;;;5048712;28;20033;-70
2022/02/01 01:10:59;;;;;;;14.85;4.35;;;0.40;89.70;;;;;;5046277;28;20033;-69
2022/02/01 01:53:50;;;;;;;;;;;0.40;88.20;;;;;;5050633;28;20460;-71
2022/02/01 01:56:16;;;;;;;10.98;4.60;;;0.40;88.00;;;;;;5055486;28;19909;-71
2022/02/01 01:58:42;;;;;;;10.95;3.92;;;0.40;88.10;;;;;;5043062;28;20036;-70
2022/02/01 02:03:37;;;;;;;14.52;5.18;;;0.40;87.80;;;;;;5047333;28;20028;-70
2022/02/01 02:06:03;;;;;;;15.13;5.85;;;0.40;87.80;;;;;;5043619;28;20029;-71
2022/02/01 02:08:30;;;;;;;13.57;5.25;;;0.40;87.50;;;;;;5040463;28;20033;-69
2022/02/01 02:16:01;;;;;;;12.13;4.55;;;0.40;87.40;;;;;;5036621;28;20018;-69
2022/02/01 02:18:30;;;;;;;11.32;4.47;;;0.40;87.10;;;;;;5039080;28;20417;-69
2022/02/01 02:20:57;;;;;;;9.07;4.18;;;0.40;87.00;;;;;;5052135;28;20061;-70
2022/02/01 02:23:23;;;;;;;13.35;4.65;;;0.40;87.10;;;;;;5054369;28;20022;-70
2022/02/01 02:25:50;;;;;;;8.82;4.40;;;0.40;86.90;;;;;;5035941;28;20120;-71
2022/02/01 02:28:17;;;;;;;12.45;4.28;;;0.40;87.00;;;;;;5046228;28;20029;-71
2022/02/01 02:30:44;;;;;;;12.70;4.60;;;0.40;87.10;;;;;;5048531;28;20033;-68
2022/02/01 02:33:14;;;;;;;14.10;5.30;;;0.40;87.20;;;;;;5042096;28;20018;-70
2022/02/01 02:36:08;;;;;;;16.40;4.90;;;0.40;87.40;;;;;;5035980;28;20025;-70
2022/02/01 02:38:45;;;;;;;11.43;4.57;;;0.40;87.30;;;;;;5050632;28;20111;-70
2022/02/01 02:46:30;;;;;;;16.83;5.63;;;0.40;87.70;;;;;;5053307;28;20110;-69
2022/02/01 02:48:56;;;;;;;13.95;5.25;;;0.40;87.60;;;;;;5038987;28;20391;-70
2022/02/01 02:51:22;;;;;;;22.17;6.15;;;0.40;87.40;;;;;;5038471;28;20100;-69
2022/02/01 02:53:48;;;;;;;18.10;6.00;;;0.40;87.60;;;;;;5052099;28;20414;-70
2022/02/01 02:56:14;;;;;;;16.23;5.22;;;0.40;87.40;;;;;;5051278;28;20318;-71
2022/02/01 02:58:40;;;;;;;24.88;6.45;;;0.40;87.20;;;;;;5043087;28;20028;-69
2022/02/01 03:01:06;;;;;;;21.23;6.25;;;0.40;87.10;;;;;;5052564;28;20032;-68
2022/02/01 03:03:32;;;;;;;14.35;5.70;;;0.40;87.10;;;;;;5055995;28;20103;-69
2022/02/01 03:05:58;;;;;;;17.90;5.75;;;0.40;87.00;;;;;;5067034;28;20025;-68
2022/02/01 03:08:24;;;;;;;15.35;5.70;;;0.40;87.00;;;;;;5048340;28;20060;-69
2022/02/01 03:10:50;;;;;;;16.88;5.70;;;0.40;87.20;;;;;;5053977;28;20291;-68
2022/02/01 03:13:22;;;;;;;22.65;6.30;;;0.40;87.10;;;;;;5047993;28;20035;-69
2022/02/01 03:15:58;;;;;;;18.42;6.07;;;0.40;87.20;;;;;;5044345;28;20144;-70
2022/02/01 03:21:11;;;;;;;23.10;6.93;;;0.40;87.20;;;;;;5050595;28;20051;-69
2022/02/01 03:23:36;;;;;;;19.50;6.30;;;0.40;87.10;;;;;;5048243;28;20115;-69
2022/02/01 03:26:05;;;;;;;22.00;6.25;;;0.40;87.00;;;;;;5048260;28;20502;-69
2022/02/01 03:28:31;;;;;;;15.18;5.63;;;0.40;87.20;;;;;;5060880;28;20086;-69
2022/02/01 03:30:57;;;;;;;18.90;6.60;;;0.40;87.10;;;;;;5051427;28;20033;-69
2022/02/01 03:33:23;;;;;;;15.77;6.20;;;0.40;87.30;;;;;;5040807;28;20053;-70
2022/02/01 03:35:49;;;;;;;20.10;6.20;;;0.40;87.20;;;;;;5040087;28;20049;-68
2022/02/01 03:38:15;;;;;;;18.42;5.38;;;0.40;87.40;;;;;;5049355;28;20428;-70
2022/02/01 03:40:41;;;;;;;18.08;6.03;;;0.40;87.30;;;;;;5058187;28;20021;-69
2022/02/01 03:43:06;;;;;;;21.17;5.50;;;0.30;87.40;;;;;;5043697;28;20025;-68
2022/02/01 03:45:32;;;;;;;21.20;5.28;;;0.30;87.30;;;;;;5050413;28;20029;-68
2022/02/01 03:47:58;;;;;;;23.83;5.95;;;0.40;87.20;;;;;;5061766;28;20038;-68
2022/02/01 03:50:23;;;;;;;22.67;6.38;;;0.40;87.30;;;;;;5043173;28;20068;-69
2022/02/01 03:52:50;;;;;;;33.67;6.88;;;0.40;87.50;;;;;;5044173;28;20021;-68
2022/02/01 03:55:15;;;;;;;21.38;6.45;;;0.40;87.70;;;;;;5057725;28;20424;-68
2022/02/01 03:57:43;;;;;;;28.45;6.13;;;0.40;87.50;;;;;;5044576;28;20021;-68
2022/02/01 04:00:13;;;;;;;19.23;6.28;;;0.30;87.70;;;;;;5047141;28;20330;-69
2022/02/01 04:02:39;;;;;;;26.73;6.22;;;0.30;87.40;;;;;;5036881;28;20025;-69
2022/02/01 04:05:05;;;;;;;19.80;6.97;;;0.30;87.30;;;;;;5043466;28;20079;-68
2022/02/01 04:07:31;;;;;;;36.72;8.07;;;0.30;87.10;;;;;;5042557;28;20026;-68
2022/02/01 04:09:56;;;;;;;33.83;8.52;;;0.30;86.70;;;;;;5056083;28;20025;-68
2022/02/01 04:12:23;;;;;;;23.08;7.93;;;0.30;86.90;;;;;;5054070;28;20067;-68
2022/02/01 04:14:50;;;;;;;24.55;6.72;;;0.30;86.70;;;;;;5042272;28;20013;-69
2022/02/01 04:17:16;;;;;;;23.00;6.00;;;0.30;86.90;;;;;;5047027;28;20024;-69
2022/02/01 04:19:43;;;;;;;28.80;7.88;;;0.30;86.90;;;;;;5053849;28;20021;-69
2022/02/01 04:22:11;;;;;;;20.80;6.00;;;0.20;86.90;;;;;;5053203;28;20018;-70
2022/02/01 04:24:46;;;;;;;31.25;7.57;;;0.30;87.10;;;;;;5047403;28;20058;-69
2022/02/01 04:27:25;;;;;;;19.73;6.82;;;0.20;87.10;;;;;;5042028;28;20072;-69
2022/02/01 04:30:05;;;;;;;27.48;6.22;;;0.20;86.60;;;;;;5043681;28;20032;-69
2022/02/01 04:32:32;;;;;;;21.42;6.22;;;0.20;87.00;;;;;;5044717;28;20025;-69
2022/02/01 04:34:59;;;;;;;26.73;7.30;;;0.20;87.10;;;;;;5042368;28;20405;-69
2022/02/01 04:37:27;;;;;;;27.25;6.93;;;0.20;87.60;;;;;;5054461;28;20025;-69
2022/02/01 04:39:53;;;;;;;29.33;7.50;;;0.20;87.30;;;;;;5056074;28;20067;-68
2022/02/01 04:42:19;;;;;;;24.05;6.80;;;0.20;87.80;;;;;;5050757;28;20037;-69
2022/02/01 04:44:44;;;;;;;32.50;8.25;;;0.20;87.80;;;;;;5047049;28;20104;-69
2022/02/01 04:47:10;;;;;;;32.10;10.55;;;0.20;88.40;;;;;;5048691;28;20037;-69
2022/02/01 04:49:35;;;;;;;37.50;11.30;;;0.20;88.80;;;;;;5042773;28;20064;-70
2022/02/01 04:52:04;;;;;;;30.25;9.30;;;0.30;89.10;;;;;;5043801;28;20495;-69
2022/02/01 04:54:30;;;;;;;23.45;7.15;;;0.20;89.60;;;;;;5050110;28;20060;-69
2022/02/01 04:56:56;;;;;;;30.27;9.23;;;0.30;90.30;;;;;;5049121;28;20425;-70
2022/02/01 04:59:21;;;;;;;23.73;7.55;;;0.20;91.00;;;;;;5044390;28;20064;-70
2022/02/01 05:01:50;;;;;;;22.42;7.90;;;0.20;91.20;;;;;;5046398;28;20033;-69
2022/02/01 05:04:19;;;;;;;30.15;8.77;;;0.20;91.50;;;;;;5055911;28;20032;-69
2022/02/01 05:06:53;;;;;;;29.00;10.52;;;0.20;91.70;;;;;;5063796;28;20020;-68
2022/02/01 05:09:19;;;;;;;27.00;7.20;;;0.30;91.80;;;;;;5052811;28;20100;-68
2022/02/01 05:11:45;;;;;;;29.00;7.43;;;0.30;92.00;;;;;;5051766;28;20021;-68
2022/02/01 05:14:16;;;;;;;32.20;7.43;;;0.20;92.20;;;;;;5052887;28;20025;-68
2022/02/01 05:22:03;;;;;;;28.48;6.88;;;0.20;93.00;;;;;;5052124;28;20103;-69
2022/02/01 05:24:30;;;;;;;23.93;6.53;;;0.30;93.20;;;;;;5037985;28;20050;-70
2022/02/01 05:26:57;;;;;;;18.42;4.25;;;0.20;93.70;;;;;;5036986;28;20129;-69
2022/02/01 05:29:23;;;;;;;27.38;7.50;;;0.20;95.20;;;;;;5043971;28;20017;-69
2022/02/01 05:31:51;;;;;;;20.42;5.78;;;0.30;95.50;;;;;;5051334;28;20025;-69
2022/02/01 05:34:18;;;;;;;21.13;5.93;;;0.30;95.90;;;;;;5044496;28;20033;-68
2022/02/01 05:36:43;;;;;;;26.55;5.72;;;0.20;96.10;;;;;;5041413;28;20029;-69
2022/02/01 05:39:14;;;;;;;37.72;8.25;;;0.20;96.00;;;;;;5037051;28;20326;-69
2022/02/01 05:41:40;;;;;;;18.60;6.53;;;0.20;95.90;;;;;;5040505;28;20444;-68
2022/02/01 05:44:06;;;;;;;23.25;6.18;;;0.20;95.60;;;;;;5040674;28;20026;-68
2022/02/01 05:46:33;;;;;;;27.25;6.28;;;0.20;95.80;;;;;;5043240;28;20042;-69
2022/02/01 05:48:59;;;;;;;22.20;5.63;;;0.20;95.90;;;;;;5046541;28;20028;-68
2022/02/01 05:51:24;;;;;;;19.02;5.47;;;0.20;96.30;;;;;;5036413;28;20025;-69
2022/02/01 05:53:53;;;;;;;23.15;6.35;;;0.20;96.20;;;;;;5045438;28;20014;-68
2022/02/01 05:56:18;;;;;;;21.75;6.78;;;0.20;96.10;;;;;;5036533;28;20032;-68
2022/02/01 05:58:44;;;;;;;18.55;6.20;;;0.20;96.20;;;;;;5042986;28;20658;-69
2022/02/01 06:01:10;;;;;;;29.38;6.82;;;0.20;96.40;;;;;;5045621;28;20048;-69
2022/02/01 06:03:35;;;;;;;28.27;7.50;;;0.10;96.90;;;;;;5037698;28;20415;-68
2022/02/01 06:06:02;;;;;;;24.20;5.22;;;0.10;97.10;;;;;;5054858;28;20053;-68
2022/02/01 06:08:37;;;;;;;22.90;6.47;;;0.10;97.80;;;;;;5043753;28;20071;-69
2022/02/01 06:11:02;;;;;;;29.17;7.50;;;0.10;97.60;;;;;;5036100;28;20026;-69
2022/02/01 06:13:28;;;;;;;21.60;6.45;;;0.10;97.70;;;;;;5042711;28;20099;-69
2022/02/01 06:15:54;;;;;;;21.52;6.20;;;0.00;98.00;;;;;;5037204;28;20422;-68
2022/02/01 06:18:20;;;;;;;22.67;7.20;;;0.00;98.00;;;;;;5051322;28;20105;-68
2022/02/01 06:20:46;;;;;;;16.40;6.30;;;0.00;98.00;;;;;;5036078;28;20080;-68
2022/02/01 06:23:16;;;;;;;25.65;7.25;;;0.00;98.00;;;;;;5055472;28;20421;-69
2022/02/01 06:25:49;;;;;;;17.50;5.55;;;0.00;98.00;;;;;;5054738;28;20048;-67
2022/02/01 06:28:18;;;;;;;25.73;8.38;;;0.00;98.00;;;;;;5038601;28;20021;-69
2022/02/01 06:30:48;;;;;;;22.60;6.80;;;0.00;98.00;;;;;;5035895;28;20173;-69
2022/02/01 06:33:14;;;;;;;17.65;6.00;;;0.00;98.00;;;;;;5053271;28;20063;-70
2022/02/01 06:35:41;;;;;;;21.95;6.90;;;0.00;98.00;;;;;;5055955;28;20363;-69
2022/02/01 06:38:07;;;;;;;23.27;6.53;;;0.00;98.00;;;;;;5037709;28;20036;-67
2022/02/01 06:40:33;;;;;;;27.00;7.20;;;0.00;98.00;;;;;;5055800;28;20032;-68
2022/02/01 06:43:00;;;;;;;21.77;7.30;;;0.00;98.00;;;;;;5043847;28;20029;-68
2022/02/01 06:45:28;;;;;;;21.38;5.90;;;0.00;98.00;;;;;;5054595;28;20055;-68
2022/02/01 06:47:55;;;;;;;18.38;5.90;;;0.00;98.00;;;;;;5039851;28;20445;-68
2022/02/01 06:50:23;;;;;;;29.63;6.20;;;0.00;98.00;;;;;;5054449;28;20032;-68
2022/02/01 06:52:57;;;;;;;18.40;5.75;;;0.00;98.00;;;;;;5052378;28;20072;-69
2022/02/01 06:58:12;;;;;;;19.25;6.20;;;0.00;98.00;;;;;;5046260;28;20039;-69
2022/02/01 07:00:39;;;;;;;20.23;5.60;;;-0.10;98.00;;;;;;5047463;28;20040;-69
2022/02/01 07:03:06;;;;;;;15.73;5.90;;;-0.10;98.00;;;;;;5039737;28;20043;-68
2022/02/01 07:05:33;;;;;;;26.85;7.38;;;-0.10;98.00;;;;;;5054695;28;20029;-69
2022/02/01 07:07:58;;;;;;;24.88;6.55;;;-0.10;98.00;;;;;;5054685;28;20082;-68
2022/02/01 07:10:24;;;;;;;27.88;8.02;;;-0.10;98.00;;;;;;5052978;28;20323;-68
2022/02/01 07:12:49;;;;;;;25.30;7.57;;;-0.10;98.00;;;;;;5043310;28;20429;-68
2022/02/01 07:15:15;;;;;;;30.15;8.23;;;-0.10;98.00;;;;;;5047056;28;20021;-69
2022/02/01 07:17:55;;;;;;;30.50;7.85;;;-0.10;98.00;;;;;;5036938;28;20028;-68
2022/02/01 07:20:21;;;;;;;26.48;7.55;;;-0.10;98.00;;;;;;5035435;28;20068;-68
2022/02/01 07:22:48;;;;;;;24.85;8.25;;;-0.10;98.00;;;;;;5036643;28;20357;-68
2022/02/01 07:27:52;;;;;;;28.85;10.27;;;-0.10;98.00;;;;;;5042551;28;20087;-68
2022/02/01 07:30:23;;;;;;;24.77;10.15;;;-0.10;98.00;;;;;;5037262;28;20373;-68
2022/02/01 07:32:49;;;;;;;21.77;7.95;;;0.00;98.00;;;;;;5053524;28;20402;-68
2022/02/01 07:35:15;;;;;;;23.80;10.13;;;-0.10;98.00;;;;;;5039069;28;20116;-68
2022/02/01 07:37:42;;;;;;;38.35;11.50;;;0.00;98.00;;;;;;5043937;28;20063;-68
2022/02/01 07:40:09;;;;;;;37.05;10.00;;;0.00;98.00;;;;;;5042415;28;20091;-68
2022/02/01 07:42:35;;;;;;;28.92;11.02;;;0.00;98.00;;;;;;5052194;28;20030;-68
2022/02/01 07:45:05;;;;;;;32.85;10.50;;;0.00;98.00;;;;;;5052712;28;20035;-68
2022/02/01 07:47:31;;;;;;;32.20;10.75;;;0.10;98.00;;;;;;5052995;28;20030;-69
2022/02/01 07:50:00;;;;;;;28.48;7.93;;;0.10;98.00;;;;;;5049710;28;20025;-68
2022/02/01 07:52:25;;;;;;;21.75;7.57;;;0.10;98.00;;;;;;5040401;28;20100;-68
2022/02/01 07:54:51;;;;;;;21.05;8.00;;;0.20;98.00;;;;;;5058586;28;20067;-68
2022/02/01 07:57:17;;;;;;;26.48;9.32;;;0.20;98.00;;;;;;5058485;28;20021;-67
2022/02/01 07:59:43;;;;;;;31.40;11.48;;;0.20;98.00;;;;;;5054885;28;20033;-66
2022/02/01 08:02:18;;;;;;;26.80;9.40;;;0.20;98.00;;;;;;5051949;28;20322;-65
2022/02/01 08:04:48;;;;;;;30.48;9.52;;;0.30;98.00;;;;;;5048704;28;20025;-67
2022/02/01 08:07:14;;;;;;;38.25;11.23;;;0.30;98.00;;;;;;5058362;28;20033;-67
2022/02/01 08:09:45;;;;;;;25.27;10.20;;;0.30;98.00;;;;;;5045715;28;20061;-69
2022/02/01 08:25:08;;;;;;;19.23;6.63;;;0.80;98.00;;;;;;5057808;28;20087;-69
2022/02/01 08:27:34;;;;;;;19.90;8.15;;;0.80;98.00;;;;;;5057928;28;20029;-69
2022/02/01 08:30:02;;;;;;;18.30;7.22;;;0.90;98.00;;;;;;5055995;28;20033;-69
2022/02/01 08:32:29;;;;;;;14.00;4.90;;;0.90;98.00;;;;;;5056485;28;20067;-69
2022/02/01 08:34:54;;;;;;;16.15;4.70;;;0.90;98.00;;;;;;5050357;28;20315;-68
2022/02/01 08:37:20;;;;;;;13.15;4.55;;;0.80;98.00;;;;;;5037842;28;20034;-69
2022/02/01 08:39:47;;;;;;;19.00;5.35;;;0.70;98.00;;;;;;5046055;28;20021;-68
2022/02/01 08:42:13;;;;;;;17.05;5.88;;;0.80;98.00;;;;;;5051350;28;20036;-69
2022/02/01 08:44:39;;;;;;;19.50;6.35;;;0.80;98.00;;;;;;5057521;28;20317;-69
2022/02/01 08:47:04;;;;;;;13.93;3.90;;;0.90;98.00;;;;;;5056477;28;20027;-69
2022/02/01 08:49:31;;;;;;;17.50;5.55;;;0.90;98.00;;;;;;5039970;28;20388;-69
2022/02/01 08:52:06;;;;;;;13.48;4.13;;;1.00;98.00;;;;;;5054957;28;20108;-69
2022/02/01 08:54:33;;;;;;;15.45;4.65;;;0.90;98.00;;;;;;5037561;28;20018;-68
2022/02/01 08:59:45;;;;;;;17.35;4.93;;;0.80;98.00;;;;;;5052729;28;20381;-68
2022/02/01 09:02:15;;;;;;;17.80;5.05;;;0.80;98.00;;;;;;5039901;28;20087;-68
2022/02/01 09:04:41;;;;;;;11.82;3.83;;;0.80;98.00;;;;;;5042096;28;20021;-68
2022/02/01 09:07:07;;;;;;;24.83;7.47;;;0.70;98.00;;;;;;5051957;28;20033;-69
2022/02/01 09:09:33;;;;;;;13.25;4.50;;;0.70;98.00;;;;;;5044283;28;20032;-68
2022/02/01 09:11:59;;;;;;;17.70;5.38;;;0.80;98.00;;;;;;5047462;28;20322;-68
2022/02/01 09:14:25;;;;;;;16.52;4.97;;;0.80;98.00;;;;;;5037293;28;20425;-68
2022/02/01 09:16:51;;;;;;;16.17;4.72;;;0.70;98.00;;;;;;5036986;28;20029;-68
2022/02/01 09:19:20;;;;;;;17.63;4.63;;;0.70;98.00;;;;;;5036915;28;20022;-68
2022/02/01 09:21:46;;;;;;;25.20;10.05;;;0.70;98.00;;;;;;5037152;28;20025;-69
2022/02/01 09:24:12;;;;;;;21.08;5.30;;;0.80;98.00;;;;;;5037837;28;20107;-68
2022/02/01 09:26:42;;;;;;;14.88;4.28;;;0.90;98.00;;;;;;5045782;28;20020;-68
2022/02/01 09:29:09;;;;;;;17.33;6.50;;;0.90;98.00;;;;;;5056773;28;20077;-68
2022/02/01 09:31:35;;;;;;;18.40;4.97;;;0.90;98.00;;;;;;5056596;28;20066;-68
2022/02/01 09:34:01;;;;;;;21.00;7.10;;;0.90;98.00;;;;;;5055021;28;20440;-68
2022/02/01 09:36:27;;;;;;;17.90;4.55;;;0.90;98.00;;;;;;5056626;28;20418;-68
2022/02/01 09:38:55;;;;;;;11.52;4.75;;;0.80;98.00;;;;;;5055610;28;20029;-69
2022/02/01 09:41:21;;;;;;;22.50;6.90;;;0.90;98.00;;;;;;5056667;28;20024;-68
2022/02/01 09:43:47;;;;;;;11.93;4.00;;;1.00;98.00;;;;;;5056502;28;20064;-68
2022/02/01 09:46:13;;;;;;;13.43;4.63;;;1.00;98.00;;;;;;5055001;28;20016;-68
2022/02/01 09:48:39;;;;;;;15.05;4.35;;;1.00;98.00;;;;;;5055165;28;20031;-68
2022/02/01 09:51:08;;;;;;;10.95;3.50;;;1.10;98.00;;;;;;5056496;28;20100;-69
2022/02/01 09:53:34;;;;;;;10.45;3.17;;;1.00;98.00;;;;;;5056511;28;20405;-68
2022/02/01 09:56:01;;;;;;;11.25;3.88;;;1.00;98.00;;;;;;5053589;28;20025;-68
2022/02/01 09:58:37;;;;;;;9.80;3.08;;;1.00;98.00;;;;;;5056435;28;20029;-69
2022/02/01 10:01:20;;;;;;;11.18;3.67;;;1.00;98.00;;;;;;5056237;28;20025;-69
2022/02/01 10:03:46;;;;;;;10.60;3.67;;;1.00;98.00;;;;;;5040346;28;20044;-69
2022/02/01 10:06:15;;;;;;;18.23;6.05;;;1.10;98.00;;;;;;5052565;28;20078;-68
2022/02/01 10:08:46;;;;;;;15.07;3.53;;;1.10;98.00;;;;;;5056197;28;20113;-69
2022/02/01 10:11:13;;;;;;;13.15;3.72;;;1.20;98.00;;;;;;5056172;28;20032;-69
2022/02/01 10:13:41;;;;;;;11.18;3.08;;;1.40;98.00;;;;;;5056238;28;20329;-68
2022/02/01 10:16:25;;;;;;;9.73;4.10;;;1.50;98.00;;;;;;5053606;28;20108;-68
2022/02/01 10:18:51;;;;;;;21.80;5.40;;;1.60;98.00;;;;;;5042106;28;20315;-68
2022/02/01 10:21:16;;;;;;;14.05;3.90;;;1.70;98.00;;;;;;5055706;28;20029;-68
2022/02/01 10:23:44;;;;;;;20.35;5.40;;;1.70;98.00;;;;;;5051216;28;20091;-69
2022/02/01 10:26:21;;;;;;;19.92;4.25;;;1.90;98.00;;;;;;5055915;28;20318;-68
2022/02/01 10:31:30;;;;;;;12.18;3.95;;;1.90;98.00;;;;;;5055924;28;20025;-68
2022/02/01 10:36:37;;;;;;;15.02;3.45;;;1.90;98.00;;;;;;5045238;28;20473;-69
2022/02/01 10:39:15;;;;;;;14.52;4.28;;;1.80;98.00;;;;;;5035980;28;20021;-69
2022/02/01 10:42:01;;;;;;;9.93;3.35;;;1.70;98.00;;;;;;5034765;28;20423;-69
2022/02/01 10:44:53;;;;;;;15.32;5.10;;;1.80;98.00;;;;;;5049485;28;20037;-70
2022/02/01 10:47:33;;;;;;;10.73;3.35;;;1.90;98.00;;;;;;5054614;28;20021;-70
2022/02/01 10:50:15;;;;;;;11.07;3.58;;;2.00;98.00;;;;;;5055679;28;20028;-69
2022/02/01 10:52:46;;;;;;;12.43;3.33;;;1.90;98.00;;;;;;5056458;28;20020;-69
2022/02/01 10:55:14;;;;;;;10.60;3.15;;;1.90;98.00;;;;;;5035638;28;20025;-70
2022/02/01 10:57:40;;;;;;;14.55;4.57;;;1.70;98.00;;;;;;5035740;28;20379;-70
2022/02/01 11:00:09;;;;;;;10.77;3.35;;;1.60;98.00;;;;;;5035720;28;20037;-70
2022/02/01 11:02:42;;;;;;;11.23;3.72;;;1.50;98.00;;;;;;5034511;28;20029;-69
2022/02/01 11:05:12;;;;;;;12.25;3.15;;;1.50;98.00;;;;;;5054717;28;20349;-69
2022/02/01 11:07:38;;;;;;;16.15;4.30;;;1.40;98.00;;;;;;5055394;28;20033;-69
2022/02/01 11:10:13;;;;;;;11.13;3.38;;;1.50;98.00;;;;;;5055523;28;20040;-69
2022/02/01 11:12:40;;;;;;;11.63;2.78;;;1.40;98.00;;;;;;5047190;28;20025;-69
2022/02/01 11:15:21;;;;;;;12.02;3.53;;;1.30;98.00;;;;;;5053732;28;20021;-70
2022/02/01 11:17:50;;;;;;;19.52;5.45;;;1.20;98.00;;;;;;5058146;28;20318;-70
2022/02/01 11:20:30;;;;;;;17.58;5.40;;;1.30;98.00;;;;;;5048484;28;20314;-70
2022/02/01 11:23:07;;;;;;;20.17;7.22;;;1.40;98.00;;;;;;5039366;28;20037;-69
2022/02/01 11:25:45;;;;;;;12.35;4.13;;;1.40;98.00;;;;;;5039141;28;20049;-69
2022/02/01 11:28:33;;;;;;;10.52;3.53;;;1.40;98.00;;;;;;5039271;28;20087;-69
2022/02/01 11:31:00;;;;;;;13.75;3.55;;;1.40;98.00;;;;;;5039227;28;20105;-70
2022/02/01 11:33:37;;;;;;;12.60;3.15;;;1.40;98.00;;;;;;5037925;28;20018;-69
2022/02/01 11:36:06;;;;;;;12.10;4.00;;;1.60;98.00;;;;;;5038955;28;20017;-70
2022/02/01 11:38:32;;;;;;;13.13;3.88;;;1.60;98.00;;;;;;5045522;28;20041;-69
2022/02/01 11:41:06;;;;;;;10.02;3.78;;;1.50;98.00;;;;;;5039814;28;20323;-70
2022/02/01 11:43:32;;;;;;;9.52;3.38;;;1.40;98.00;;;;;;5038929;28;20287;-70
2022/02/01 11:46:04;;;;;;;8.70;2.78;;;1.50;98.00;;;;;;5050951;28;20451;-69
2022/02/01 11:48:38;;;;;;;10.20;2.33;;;1.60;98.00;;;;;;5041854;28;21238;-69
2022/02/01 11:51:13;;;;;;;10.43;3.13;;;1.50;97.90;;;;;;5058809;28;20104;-70
2022/02/01 11:53:42;;;;;;;9.70;2.40;;;1.70;97.70;;;;;;5058710;28;20020;-69
2022/02/01 11:56:11;;;;;;;11.77;2.95;;;1.80;97.50;;;;;;5057010;28;20039;-69
2022/02/01 11:58:41;;;;;;;12.13;3.28;;;1.70;96.90;;;;;;5051771;28;20031;-70
2022/02/01 12:01:22;;;;;;;17.40;3.33;;;1.70;97.10;;;;;;5047091;28;20021;-70
2022/02/01 12:04:10;;;;;;;13.60;3.63;;;1.60;97.50;;;;;;5041995;28;20025;-68
2022/02/01 12:06:45;;;;;;;11.40;2.50;;;1.50;98.00;;;;;;5047674;28;20032;-70
2022/02/01 12:09:19;;;;;;;9.52;3.22;;;1.60;98.00;;;;;;5041942;28;20029;-70
2022/02/01 12:11:46;;;;;;;13.73;2.47;;;1.70;98.00;;;;;;5054810;28;20082;-70
2022/02/01 12:14:14;;;;;;;6.15;2.70;;;1.70;97.90;;;;;;5045652;28;20484;-70
2022/02/01 12:16:47;;;;;;;9.50;2.42;;;1.70;98.00;;;;;;5045115;28;20029;-69
2022/02/01 12:19:28;;;;;;;12.20;2.22;;;1.60;98.00;;;;;;5050734;28;20045;-70
2022/02/01 12:22:04;;;;;;;10.57;2.47;;;1.60;98.00;;;;;;5041130;28;20325;-69
2022/02/01 12:24:31;;;;;;;10.63;2.67;;;1.40;98.00;;;;;;5035329;28;20045;-70
2022/02/01 12:26:57;;;;;;;15.95;3.53;;;1.60;98.00;;;;;;5042941;28;20067;-69
2022/02/01 12:29:26;;;;;;;9.80;2.97;;;1.70;98.00;;;;;;5040984;28;20061;-70
2022/02/01 12:31:54;;;;;;;6.18;2.38;;;1.80;98.00;;;;;;5033444;28;20033;-69
2022/02/01 12:34:20;;;;;;;6.22;2.45;;;1.60;98.00;;;;;;5045805;28;20287;-70
2022/02/01 12:36:52;;;;;;;10.68;2.75;;;1.80;98.00;;;;;;5043078;28;20029;-70
2022/02/01 12:39:24;;;;;;;6.95;2.72;;;1.70;98.00;;;;;;5036114;28;20037;-69
2022/02/01 12:42:01;;;;;;;10.50;3.50;;;1.50;98.00;;;;;;5039970;28;20034;-68
2022/02/01 12:47:20;;;;;;;6.78;2.60;;;1.50;97.80;;;;;;5035253;28;20037;-68
2022/02/01 12:49:57;;;;;;;13.43;3.60;;;1.50;97.90;;;;;;5042976;28;20444;-67
2022/02/01 12:52:32;;;;;;;7.40;2.83;;;1.50;98.00;;;;;;5041133;28;20060;-67
2022/02/01 12:55:11;;;;;;;8.57;3.00;;;1.50;97.30;;;;;;5046668;28;20082;-69
2022/02/01 12:57:39;;;;;;;13.45;4.70;;;1.60;97.50;;;;;;5036686;28;20314;-68
2022/02/01 13:00:17;;;;;;;14.95;4.40;;;1.60;96.70;;;;;;5051623;28;20037;-69
2022/02/01 13:02:44;;;;;;;10.20;3.05;;;1.60;97.00;;;;;;5047254;28;20472;-69
2022/02/01 13:05:17;;;;;;;11.75;3.05;;;1.50;96.40;;;;;;5054404;28;20313;-69
2022/02/01 13:08:11;;;;;;;8.57;3.00;;;1.40;97.00;;;;;;5054613;28;20105;-70
2022/02/01 13:21:04;;;;;;;8.20;2.40;;;1.40;97.10;;;;;;5055835;28;20329;-69
2022/02/01 13:23:43;;;;;;;9.32;2.22;;;1.40;96.80;;;;;;5035833;28;20029;-68
2022/02/01 13:26:11;;;;;;;9.07;3.25;;;1.30;97.20;;;;;;5040894;28;20094;-69
2022/02/01 13:28:41;;;;;;;7.22;2.13;;;1.40;97.20;;;;;;5054476;28;20052;-69
2022/02/01 13:31:13;;;;;;;10.48;2.42;;;1.40;97.00;;;;;;5038640;28;20022;-68
2022/02/01 13:33:55;;;;;;;8.13;2.55;;;1.30;97.20;;;;;;5035388;28;20049;-68
2022/02/01 13:36:21;;;;;;;7.20;2.40;;;1.30;97.20;;;;;;5044978;28;20021;-67
2022/02/01 13:39:03;;;;;;;9.95;2.65;;;1.30;97.50;;;;;;5036887;28;20037;-67
2022/02/01 13:41:30;;;;;;;7.60;2.30;;;1.30;98.00;;;;;;5055286;28;20017;-68
2022/02/01 13:44:00;;;;;;;9.43;2.40;;;1.30;98.00;;;;;;5065957;28;20094;-69
2022/02/01 13:46:32;;;;;;;7.47;2.10;;;1.20;98.00;;;;;;5049444;28;20067;-70
2022/02/01 13:49:16;;;;;;;7.53;2.40;;;1.20;98.00;;;;;;5046728;28;20035;-69
2022/02/01 13:51:50;;;;;;;7.30;2.05;;;1.30;98.00;;;;;;5053406;28;20045;-69
2022/02/01 13:54:18;;;;;;;8.68;1.85;;;1.30;98.00;;;;;;5045206;28;20377;-69
2022/02/01 13:56:57;;;;;;;7.82;2.80;;;1.30;98.00;;;;;;5043895;28;20079;-69
2022/02/01 13:59:27;;;;;;;4.43;1.80;;;1.30;98.00;;;;;;5054399;28;20057;-70
2022/02/01 14:02:04;;;;;;;8.07;2.42;;;1.30;98.00;;;;;;5037589;28;20095;-69
2022/02/01 14:04:46;;;;;;;6.55;2.03;;;1.40;98.00;;;;;;5054956;28;20451;-70
2022/02/01 14:33:58;;;;;;;4.43;1.80;;;1.70;97.80;;;;;;5064687;28;20078;-68
2022/02/01 14:36:28;;;;;;;6.78;1.67;;;1.60;98.00;;;;;;5055262;28;20054;-69
2022/02/01 14:44:30;;;;;;;;;;;1.60;98.00;;;;;;5048219;28;20035;-69
2022/02/01 14:46:57;;;;;;;4.82;1.50;;;1.60;98.00;;;;;;5044250;28;20343;-71
2022/02/01 14:49:26;;;;;;;3.42;1.48;;;1.60;98.00;;;;;;5044778;28;20039;-69
2022/02/01 14:51:53;;;;;;;2.92;1.30;;;1.60;98.00;;;;;;5050821;28;20086;-69
2022/02/01 14:54:27;;;;;;;4.30;1.85;;;1.70;98.00;;;;;;5052935;28;20075;-69
2022/02/01 14:56:54;;;;;;;;;;;1.60;98.00;;;;;;5044727;28;20135;-70
2022/02/01 15:05:13;;;;;;;4.28;2.00;;;1.50;98.00;;;;;;5044932;28;19962;-69
2022/02/01 15:07:53;;;;;;;5.25;1.52;;;1.50;98.00;;;;;;5041710;28;20036;-69
2022/02/01 15:13:08;;;;;;;4.53;2.05;;;1.40;98.00;;;;;;5046447;28;20059;-70
2022/02/01 15:15:34;;;;;;;6.75;1.63;;;1.40;98.00;;;;;;5039347;28;20022;-69
2022/02/01 15:18:00;;;;;;;5.78;1.55;;;1.40;98.00;;;;;;5046065;28;20025;-69
2022/02/01 15:20:27;;;;;;;4.28;1.88;;;1.30;98.00;;;;;;5059220;28;20025;-70
2022/02/01 15:22:53;;;;;;;10.82;4.25;;;1.30;98.00;;;;;;5059324;28;20059;-69
2022/02/01 15:25:19;;;;;;;9.18;2.80;;;1.30;98.00;;;;;;5058906;28;20136;-70
2022/02/01 15:27:45;;;;;;;2.92;1.50;;;1.30;98.00;;;;;;5058244;28;20025;-70
2022/02/01 15:30:11;;;;;;;6.47;2.08;;;1.30;98.00;;;;;;5057979;28;20037;-70
2022/02/01 15:32:38;;;;;;;5.53;2.28;;;1.40;98.00;;;;;;5039896;28;20040;-70
2022/02/01 15:35:05;;;;;;;3.45;1.48;;;1.40;98.00;;;;;;5059125;28;20016;-68
2022/02/01 15:37:34;;;;;;;4.35;2.38;;;1.40;98.00;;;;;;5049312;28;20025;-69
2022/02/01 15:59:02;;;;;;;5.20;2.50;;;1.50;98.00;;;;;;5038761;28;20076;-70
2022/02/01 16:01:41;;;;;;;6.13;3.38;;;1.50;98.00;;;;;;5038596;28;20018;-69
2022/02/01 16:04:07;;;;;;;8.05;3.38;;;1.50;98.00;;;;;;5037642;28;20022;-69
2022/02/01 16:06:36;;;;;;;8.23;4.55;;;1.50;98.00;;;;;;5038559;28;20038;-69